sim
Sign-in with your pilot id or email,
or register
Callsign
Passwort

Schedule Details

Flight Number: DLH2273
Departure: Nice Cote d'Azur Airport (LFMN) at 12:15
Arrival: Munich Airport (EDDM) at 13:40
Route: Lufthansa Passenger Schedule. Enter filed route here before submitting Pirep.

Weather Information
Getting current METAR information for LFMN 211130Z 12008KT 9999 FEW020 FEW040CB SCT120 25/19 Q1016 TEMPO 8000 TSRA
Getting current METAR information for EDDM 211150Z 04004KT 330V110 CAVOK 22/13 Q1016 NOSIG

Schedule Frequency

Route Map